»·PEaware :: N2287 KOAK-KSAC

N2287 :: KOAK-KSAC

FLIGHT INFORMATION

Flight Status: Arrived
Operator: Privately registered:
United States
More flights under this callsign
Pilot: Leo F. (613)
Aircraft: CESSNA 310
(C310)
More flights by this aircraft type
Origin: KOAK Metro Oakland Intl
United States
Destination: KSAC Sacramento Executive
United States
More flights between these airports :: More routes between these airports
Route: OAK3 V6 SAC
File this flight plan on PilotEdge
Remarks: FULL PROC ILS APPR RWY2 WITH MISSED APPROACH FOLLOWED BY VOR APPR RWY2
Altitude:
(Current/Filed)
5,000ft
Speed:
(Current/Filed)
180kts
Departed: 30-Jun-18 09:17 AM
Arrived: 30-Jun-18 09:58 AM
Distance/Time
Traveled:
58nm/0:41
Distance/Time
To Go:
Arrived

Flight Plot

Page will automatically refresh every two minutes.

Flight plan parsing failed; only flown route is shown


Map Options




Map Legend


Flown Route
Filed Route
Departure Airport
Arrival Airport
Navaid (VOR, NDB)
Fix

Horizontal Profiles

Position Reports

Time Latitude Longitude Heading Altitude Ground
Speed
30-Jun-18 08:48 37.727150 -122.204466 262 9ft 0kts
30-Jun-18 08:49 37.727150 -122.204466 262 9ft 0kts
30-Jun-18 08:50 37.727150 -122.204466 262 9ft 0kts
30-Jun-18 08:51 37.727150 -122.204466 262 9ft 0kts
30-Jun-18 08:51 37.727150 -122.204466 262 9ft 0kts
30-Jun-18 08:52 37.727150 -122.204466 262 9ft 0kts
30-Jun-18 08:53 37.727150 -122.204466 262 9ft 0kts
30-Jun-18 08:54 37.727150 -122.204466 262 9ft 0kts
30-Jun-18 08:55 37.727150 -122.204466 262 9ft 0kts
30-Jun-18 08:56 37.727150 -122.204466 262 9ft 0kts
30-Jun-18 08:57 37.727150 -122.204466 262 9ft 0kts
30-Jun-18 08:58 37.727150 -122.204466 262 9ft 0kts
30-Jun-18 08:59 37.727150 -122.204466 262 9ft 0kts
30-Jun-18 09:00 37.727150 -122.204466 262 9ft 0kts
30-Jun-18 09:01 37.727150 -122.204466 262 9ft 0kts
30-Jun-18 09:02 37.727150 -122.204466 262 9ft 0kts
30-Jun-18 09:03 37.727150 -122.204466 262 9ft 0kts
30-Jun-18 09:04 37.727150 -122.204466 262 9ft 0kts
30-Jun-18 09:05 37.727150 -122.204466 262 9ft 0kts
30-Jun-18 09:06 37.727150 -122.204466 262 9ft 0kts
30-Jun-18 09:07 37.726926 -122.204781 203 9ft 4kts
30-Jun-18 09:08 37.725617 -122.204648 193 9ft 0kts
30-Jun-18 09:09 37.725617 -122.204648 193 9ft 0kts
30-Jun-18 09:10 37.725617 -122.204648 193 9ft 0kts
30-Jun-18 09:11 37.725617 -122.204648 193 9ft 0kts
30-Jun-18 09:12 37.725617 -122.204648 193 9ft 0kts
30-Jun-18 09:13 37.725617 -122.204648 193 9ft 0kts
30-Jun-18 09:14 37.725617 -122.204648 193 9ft 0kts
30-Jun-18 09:15 37.725617 -122.204648 193 9ft 0kts
30-Jun-18 09:16 37.725280 -122.206204 289 9ft 35kts
30-Jun-18 09:17 37.737616 -122.240727 293 1089ft 138kts
30-Jun-18 09:18 37.754267 -122.292117 294 1943ft 186kts
30-Jun-18 09:19 37.774322 -122.351576 294 1918ft 178kts
30-Jun-18 09:20 37.791747 -122.404684 293 2799ft 150kts
30-Jun-18 09:21 37.816222 -122.414279 77 3875ft 134kts
30-Jun-18 09:22 37.833309 -122.374838 56 4888ft 125kts
30-Jun-18 09:23 37.852927 -122.333270 61 5027ft 159kts
30-Jun-18 09:24 37.875043 -122.281560 61 5009ft 173kts
30-Jun-18 09:25 37.899256 -122.227752 60 5009ft 177kts
30-Jun-18 09:26 37.923632 -122.173204 60 5009ft 178kts
30-Jun-18 09:27 37.948001 -122.118406 60 5010ft 178kts
30-Jun-18 09:28 37.972254 -122.063792 60 5009ft 178kts
30-Jun-18 09:29 37.996449 -122.009207 60 5009ft 178kts
30-Jun-18 09:30 38.020741 -121.954320 60 5009ft 177kts
30-Jun-18 09:31 38.044206 -121.901317 60 4998ft 163kts
30-Jun-18 09:32 38.075910 -121.863585 40 5001ft 156kts
30-Jun-18 09:33 38.109557 -121.829092 40 4999ft 155kts
30-Jun-18 09:34 38.143065 -121.794459 40 4999ft 155kts
30-Jun-18 09:35 38.176443 -121.759811 40 5001ft 154kts
30-Jun-18 09:36 38.215329 -121.737885 18 5004ft 156kts
30-Jun-18 09:37 38.252509 -121.709977 35 4827ft 155kts
30-Jun-18 09:38 38.282634 -121.687062 31 3261ft 125kts
30-Jun-18 09:39 38.313241 -121.664036 30 2076ft 120kts
30-Jun-18 09:40 38.342115 -121.645613 33 1961ft 115kts
30-Jun-18 09:41 38.368686 -121.623356 34 1897ft 113kts
30-Jun-18 09:42 38.395154 -121.598357 42 1580ft 121kts
30-Jun-18 09:43 38.420010 -121.570352 36 1390ft 114kts
30-Jun-18 09:44 38.446480 -121.549215 31 1416ft 115kts
30-Jun-18 09:45 38.475677 -121.525663 33 874ft 123kts
30-Jun-18 09:46 38.505863 -121.500267 36 603ft 145kts
30-Jun-18 09:47 38.537210 -121.509776 291 1601ft 134kts
30-Jun-18 09:48 38.524222 -121.549759 185 1573ft 145kts
30-Jun-18 09:49 38.483843 -121.555736 183 1497ft 144kts
30-Jun-18 09:50 38.444761 -121.553631 179 1621ft 139kts
30-Jun-18 09:51 38.405468 -121.554169 181 1625ft 142kts
30-Jun-18 09:52 38.373448 -121.573149 281 1516ft 144kts
30-Jun-18 09:53 38.399035 -121.580469 18 1440ft 96kts
30-Jun-18 09:54 38.423913 -121.569005 21 1426ft 94kts
30-Jun-18 09:55 38.445314 -121.550240 33 1419ft 94kts
30-Jun-18 09:56 38.470405 -121.529825 31 761ft 116kts
30-Jun-18 09:57 38.495822 -121.508664 33 273ft 101kts
30-Jun-18 09:58 38.509120 -121.498562 316 27ft 0kts
30-Jun-18 09:59 38.510130 -121.498245 34 27ft 10kts
30-Jun-18 10:00 38.512453 -121.498922 300 27ft 0kts
30-Jun-18 10:01 38.512453 -121.498922 300 27ft 0kts
30-Jun-18 10:02 38.512453 -121.498922 300 27ft 0kts

Navigation Log

Ident Type
Flight plan parsing failed, navigation log unavailable